sensor_id;sensor_type;location;lat;lon;timestamp;P1;durP1;ratioP1;P2;durP2;ratioP2
78885;SDS011;68269;52.514;5.722;2023-03-01T00:02:01;10.65;;;4.22;;
78885;SDS011;68269;52.514;5.722;2023-03-01T00:04:31;8.43;;;3.50;;
78885;SDS011;68269;52.514;5.722;2023-03-01T00:07:01;11.13;;;4.55;;
78885;SDS011;68269;52.514;5.722;2023-03-01T00:09:33;9.82;;;3.78;;
78885;SDS011;68269;52.514;5.722;2023-03-01T00:12:05;11.07;;;5.00;;
78885;SDS011;68269;52.514;5.722;2023-03-01T00:14:35;10.65;;;4.07;;
78885;SDS011;68269;52.514;5.722;2023-03-01T00:17:04;11.23;;;3.92;;
78885;SDS011;68269;52.514;5.722;2023-03-01T00:19:34;15.23;;;4.68;;
78885;SDS011;68269;52.514;5.722;2023-03-01T00:22:03;15.18;;;5.07;;
78885;SDS011;68269;52.514;5.722;2023-03-01T00:24:35;15.35;;;4.18;;
78885;SDS011;68269;52.514;5.722;2023-03-01T00:27:04;13.95;;;4.95;;
78885;SDS011;68269;52.514;5.722;2023-03-01T00:29:33;14.25;;;4.28;;
78885;SDS011;68269;52.514;5.722;2023-03-01T00:32:03;11.00;;;5.13;;
78885;SDS011;68269;52.514;5.722;2023-03-01T00:34:32;10.27;;;4.13;;
78885;SDS011;68269;52.514;5.722;2023-03-01T00:37:01;10.55;;;4.32;;
78885;SDS011;68269;52.514;5.722;2023-03-01T00:39:32;12.38;;;4.18;;
78885;SDS011;68269;52.514;5.722;2023-03-01T00:42:04;13.05;;;4.68;;
78885;SDS011;68269;52.514;5.722;2023-03-01T00:44:33;11.20;;;3.85;;
78885;SDS011;68269;52.514;5.722;2023-03-01T00:47:04;8.60;;;3.10;;
78885;SDS011;68269;52.514;5.722;2023-03-01T00:49:33;12.98;;;5.00;;
78885;SDS011;68269;52.514;5.722;2023-03-01T00:52:03;8.60;;;3.67;;
78885;SDS011;68269;52.514;5.722;2023-03-01T00:54:35;10.77;;;3.85;;
78885;SDS011;68269;52.514;5.722;2023-03-01T00:57:05;10.90;;;4.15;;
78885;SDS011;68269;52.514;5.722;2023-03-01T00:59:34;11.13;;;3.47;;
78885;SDS011;68269;52.514;5.722;2023-03-01T01:02:03;13.50;;;4.70;;
78885;SDS011;68269;52.514;5.722;2023-03-01T01:04:32;9.20;;;3.30;;
78885;SDS011;68269;52.514;5.722;2023-03-01T01:07:03;8.70;;;3.72;;
78885;SDS011;68269;52.514;5.722;2023-03-01T01:09:32;10.88;;;4.30;;
78885;SDS011;68269;52.514;5.722;2023-03-01T01:12:05;9.85;;;3.88;;
78885;SDS011;68269;52.514;5.722;2023-03-01T01:14:34;10.95;;;3.50;;
78885;SDS011;68269;52.514;5.722;2023-03-01T01:17:04;9.38;;;3.80;;
78885;SDS011;68269;52.514;5.722;2023-03-01T01:19:33;9.27;;;4.05;;
78885;SDS011;68269;52.514;5.722;2023-03-01T01:22:02;7.93;;;3.95;;
78885;SDS011;68269;52.514;5.722;2023-03-01T01:24:32;8.77;;;3.53;;
78885;SDS011;68269;52.514;5.722;2023-03-01T01:27:01;11.65;;;3.80;;
78885;SDS011;68269;52.514;5.722;2023-03-01T01:29:35;12.23;;;4.38;;
78885;SDS011;68269;52.514;5.722;2023-03-01T01:32:04;12.98;;;3.83;;
78885;SDS011;68269;52.514;5.722;2023-03-01T01:34:34;12.15;;;4.05;;
78885;SDS011;68269;52.514;5.722;2023-03-01T01:37:03;10.52;;;3.60;;
78885;SDS011;68269;52.514;5.722;2023-03-01T01:39:33;9.38;;;3.53;;
78885;SDS011;68269;52.514;5.722;2023-03-01T01:42:03;11.70;;;3.92;;
78885;SDS011;68269;52.514;5.722;2023-03-01T01:44:35;9.82;;;3.70;;
78885;SDS011;68269;52.514;5.722;2023-03-01T01:47:04;10.73;;;4.28;;
78885;SDS011;68269;52.514;5.722;2023-03-01T01:49:36;9.25;;;3.80;;
78885;SDS011;68269;52.514;5.722;2023-03-01T01:52:09;7.75;;;2.80;;
78885;SDS011;68269;52.514;5.722;2023-03-01T01:54:44;9.90;;;2.72;;
78885;SDS011;68269;52.514;5.722;2023-03-01T01:57:21;11.90;;;3.80;;
78885;SDS011;68269;52.514;5.722;2023-03-01T01:59:57;9.20;;;3.30;;
78885;SDS011;68269;52.514;5.722;2023-03-01T02:02:39;8.88;;;3.63;;
78885;SDS011;68269;52.514;5.722;2023-03-01T02:05:11;8.77;;;3.70;;
78885;SDS011;68269;52.514;5.722;2023-03-01T02:07:45;9.63;;;2.65;;
78885;SDS011;68269;52.514;5.722;2023-03-01T02:10:19;13.65;;;4.07;;
78885;SDS011;68269;52.514;5.722;2023-03-01T02:12:49;7.30;;;3.28;;
78885;SDS011;68269;52.514;5.722;2023-03-01T02:15:23;10.35;;;4.18;;
78885;SDS011;68269;52.514;5.722;2023-03-01T02:17:53;11.80;;;4.72;;
78885;SDS011;68269;52.514;5.722;2023-03-01T02:20:26;9.82;;;3.92;;
78885;SDS011;68269;52.514;5.722;2023-03-01T02:22:59;9.07;;;3.80;;
78885;SDS011;68269;52.514;5.722;2023-03-01T02:25:34;7.88;;;3.25;;
78885;SDS011;68269;52.514;5.722;2023-03-01T02:28:10;9.98;;;4.03;;
78885;SDS011;68269;52.514;5.722;2023-03-01T02:31:05;9.38;;;4.22;;
78885;SDS011;68269;52.514;5.722;2023-03-01T02:33:48;9.40;;;4.10;;
78885;SDS011;68269;52.514;5.722;2023-03-01T02:36:19;9.77;;;4.40;;
78885;SDS011;68269;52.514;5.722;2023-03-01T02:38:50;9.77;;;3.83;;
78885;SDS011;68269;52.514;5.722;2023-03-01T02:41:22;12.90;;;4.55;;
78885;SDS011;68269;52.514;5.722;2023-03-01T02:43:53;10.10;;;4.20;;
78885;SDS011;68269;52.514;5.722;2023-03-01T02:46:26;11.35;;;4.32;;
78885;SDS011;68269;52.514;5.722;2023-03-01T02:48:56;10.48;;;3.70;;
78885;SDS011;68269;52.514;5.722;2023-03-01T02:51:37;10.38;;;3.33;;
78885;SDS011;68269;52.514;5.722;2023-03-01T02:54:17;9.05;;;3.40;;
78885;SDS011;68269;52.514;5.722;2023-03-01T02:56:53;12.13;;;4.88;;
78885;SDS011;68269;52.514;5.722;2023-03-01T02:59:26;9.82;;;4.05;;
78885;SDS011;68269;52.514;5.722;2023-03-01T03:02:03;11.40;;;3.83;;
78885;SDS011;68269;52.514;5.722;2023-03-01T03:04:32;7.63;;;3.05;;
78885;SDS011;68269;52.514;5.722;2023-03-01T03:07:02;12.25;;;3.72;;
78885;SDS011;68269;52.514;5.722;2023-03-01T03:09:31;10.38;;;3.25;;
78885;SDS011;68269;52.514;5.722;2023-03-01T03:12:00;12.98;;;3.88;;
78885;SDS011;68269;52.514;5.722;2023-03-01T03:14:30;9.27;;;4.15;;
78885;SDS011;68269;52.514;5.722;2023-03-01T03:17:03;11.80;;;4.57;;
78885;SDS011;68269;52.514;5.722;2023-03-01T03:19:32;7.72;;;3.67;;
78885;SDS011;68269;52.514;5.722;2023-03-01T03:22:01;16.27;;;5.45;;
78885;SDS011;68269;52.514;5.722;2023-03-01T03:24:31;12.20;;;4.65;;
78885;SDS011;68269;52.514;5.722;2023-03-01T03:27:03;11.27;;;4.40;;
78885;SDS011;68269;52.514;5.722;2023-03-01T03:29:33;12.35;;;4.70;;
78885;SDS011;68269;52.514;5.722;2023-03-01T03:32:05;12.93;;;4.35;;
78885;SDS011;68269;52.514;5.722;2023-03-01T03:34:34;11.27;;;5.55;;
78885;SDS011;68269;52.514;5.722;2023-03-01T03:37:04;9.40;;;4.10;;
78885;SDS011;68269;52.514;5.722;2023-03-01T03:39:53;9.80;;;4.00;;
78885;SDS011;68269;52.514;5.722;2023-03-01T03:42:22;10.27;;;3.67;;
78885;SDS011;68269;52.514;5.722;2023-03-01T03:44:52;12.95;;;5.50;;
78885;SDS011;68269;52.514;5.722;2023-03-01T03:47:23;9.57;;;4.18;;
78885;SDS011;68269;52.514;5.722;2023-03-01T03:49:53;9.90;;;4.38;;
78885;SDS011;68269;52.514;5.722;2023-03-01T03:52:22;10.98;;;4.20;;
78885;SDS011;68269;52.514;5.722;2023-03-01T03:54:51;8.90;;;3.63;;
78885;SDS011;68269;52.514;5.722;2023-03-01T03:57:20;11.68;;;4.50;;
78885;SDS011;68269;52.514;5.722;2023-03-01T03:59:50;12.32;;;5.07;;
78885;SDS011;68269;52.514;5.722;2023-03-01T04:02:19;14.07;;;5.22;;
78885;SDS011;68269;52.514;5.722;2023-03-01T04:04:53;11.50;;;4.43;;
78885;SDS011;68269;52.514;5.722;2023-03-01T04:07:22;11.13;;;3.97;;
78885;SDS011;68269;52.514;5.722;2023-03-01T04:09:52;9.90;;;3.17;;
78885;SDS011;68269;52.514;5.722;2023-03-01T04:12:21;12.07;;;4.90;;
78885;SDS011;68269;52.514;5.722;2023-03-01T04:14:50;13.45;;;4.88;;
78885;SDS011;68269;52.514;5.722;2023-03-01T04:17:20;9.95;;;3.88;;
78885;SDS011;68269;52.514;5.722;2023-03-01T04:19:49;9.27;;;4.13;;
78885;SDS011;68269;52.514;5.722;2023-03-01T04:22:21;11.30;;;4.45;;
78885;SDS011;68269;52.514;5.722;2023-03-01T04:24:55;10.10;;;4.22;;
78885;SDS011;68269;52.514;5.722;2023-03-01T04:27:32;11.75;;;4.95;;
78885;SDS011;68269;52.514;5.722;2023-03-01T04:30:02;12.27;;;4.72;;
78885;SDS011;68269;52.514;5.722;2023-03-01T04:32:32;11.35;;;4.30;;
78885;SDS011;68269;52.514;5.722;2023-03-01T04:35:01;12.95;;;5.28;;
78885;SDS011;68269;52.514;5.722;2023-03-01T04:37:33;11.48;;;5.07;;
78885;SDS011;68269;52.514;5.722;2023-03-01T04:40:03;16.70;;;6.53;;
78885;SDS011;68269;52.514;5.722;2023-03-01T04:42:42;14.10;;;5.32;;
78885;SDS011;68269;52.514;5.722;2023-03-01T04:45:11;13.95;;;4.82;;
78885;SDS011;68269;52.514;5.722;2023-03-01T04:47:42;12.25;;;5.55;;
78885;SDS011;68269;52.514;5.722;2023-03-01T04:50:13;11.32;;;4.03;;
78885;SDS011;68269;52.514;5.722;2023-03-01T04:52:48;12.63;;;4.68;;
78885;SDS011;68269;52.514;5.722;2023-03-01T04:55:18;10.95;;;4.07;;
78885;SDS011;68269;52.514;5.722;2023-03-01T04:57:47;14.77;;;6.13;;
78885;SDS011;68269;52.514;5.722;2023-03-01T05:00:17;13.02;;;6.00;;
78885;SDS011;68269;52.514;5.722;2023-03-01T05:02:50;13.43;;;6.38;;
78885;SDS011;68269;52.514;5.722;2023-03-01T05:05:25;14.65;;;6.85;;
78885;SDS011;68269;52.514;5.722;2023-03-01T05:07:59;23.67;;;7.47;;
78885;SDS011;68269;52.514;5.722;2023-03-01T05:10:32;17.90;;;6.13;;
78885;SDS011;68269;52.514;5.722;2023-03-01T05:13:04;48.45;;;8.48;;
78885;SDS011;68269;52.514;5.722;2023-03-01T05:15:33;17.58;;;5.10;;
78885;SDS011;68269;52.514;5.722;2023-03-01T05:18:03;19.20;;;5.28;;
78885;SDS011;68269;52.514;5.722;2023-03-01T05:20:37;20.00;;;5.10;;
78885;SDS011;68269;52.514;5.722;2023-03-01T05:23:09;16.98;;;6.43;;
78885;SDS011;68269;52.514;5.722;2023-03-01T05:25:38;33.78;;;5.55;;
78885;SDS011;68269;52.514;5.722;2023-03-01T05:28:09;32.13;;;5.10;;
78885;SDS011;68269;52.514;5.722;2023-03-01T05:30:40;20.33;;;5.13;;
78885;SDS011;68269;52.514;5.722;2023-03-01T05:33:09;35.92;;;6.43;;
78885;SDS011;68269;52.514;5.722;2023-03-01T05:35:42;23.65;;;4.30;;
78885;SDS011;68269;52.514;5.722;2023-03-01T05:38:17;30.80;;;4.30;;
78885;SDS011;68269;52.514;5.722;2023-03-01T05:40:47;13.50;;;4.50;;
78885;SDS011;68269;52.514;5.722;2023-03-01T05:43:16;9.07;;;3.83;;
78885;SDS011;68269;52.514;5.722;2023-03-01T05:45:46;17.30;;;4.07;;
78885;SDS011;68269;52.514;5.722;2023-03-01T05:48:15;16.45;;;4.88;;
78885;SDS011;68269;52.514;5.722;2023-03-01T05:50:45;18.15;;;3.97;;
78885;SDS011;68269;52.514;5.722;2023-03-01T05:53:17;12.60;;;3.88;;
78885;SDS011;68269;52.514;5.722;2023-03-01T05:58:18;10.60;;;3.80;;
78885;SDS011;68269;52.514;5.722;2023-03-01T06:00:48;9.02;;;3.55;;
78885;SDS011;68269;52.514;5.722;2023-03-01T06:03:18;9.05;;;3.83;;
78885;SDS011;68269;52.514;5.722;2023-03-01T06:05:47;13.48;;;4.20;;
78885;SDS011;68269;52.514;5.722;2023-03-01T06:08:19;9.70;;;3.42;;
78885;SDS011;68269;52.514;5.722;2023-03-01T06:10:50;8.27;;;3.03;;
78885;SDS011;68269;52.514;5.722;2023-03-01T06:13:19;10.60;;;5.35;;
78885;SDS011;68269;52.514;5.722;2023-03-01T06:15:49;11.02;;;4.43;;
78885;SDS011;68269;52.514;5.722;2023-03-01T06:18:18;14.25;;;5.95;;
78885;SDS011;68269;52.514;5.722;2023-03-01T06:20:52;16.02;;;8.10;;
78885;SDS011;68269;52.514;5.722;2023-03-01T06:23:24;16.35;;;6.65;;
78885;SDS011;68269;52.514;5.722;2023-03-01T06:25:53;11.30;;;5.50;;
78885;SDS011;68269;52.514;5.722;2023-03-01T06:28:23;12.27;;;5.35;;
78885;SDS011;68269;52.514;5.722;2023-03-01T06:30:52;11.50;;;4.85;;
78885;SDS011;68269;52.514;5.722;2023-03-01T06:33:21;11.38;;;4.40;;
78885;SDS011;68269;52.514;5.722;2023-03-01T06:35:51;9.57;;;3.58;;
78885;SDS011;68269;52.514;5.722;2023-03-01T06:38:25;10.15;;;5.13;;
78885;SDS011;68269;52.514;5.722;2023-03-01T06:40:55;13.68;;;6.90;;
78885;SDS011;68269;52.514;5.722;2023-03-01T06:43:24;17.83;;;7.57;;
78885;SDS011;68269;52.514;5.722;2023-03-01T06:45:54;17.98;;;8.07;;
78885;SDS011;68269;52.514;5.722;2023-03-01T06:48:23;14.38;;;5.63;;
78885;SDS011;68269;52.514;5.722;2023-03-01T06:50:52;22.92;;;6.28;;
78885;SDS011;68269;52.514;5.722;2023-03-01T06:53:21;13.13;;;4.45;;
78885;SDS011;68269;52.514;5.722;2023-03-01T06:55:54;15.10;;;4.00;;
78885;SDS011;68269;52.514;5.722;2023-03-01T06:58:24;13.32;;;5.00;;
78885;SDS011;68269;52.514;5.722;2023-03-01T07:00:54;13.38;;;4.68;;
78885;SDS011;68269;52.514;5.722;2023-03-01T07:03:23;15.57;;;7.20;;
78885;SDS011;68269;52.514;5.722;2023-03-01T07:05:52;19.58;;;8.50;;
78885;SDS011;68269;52.514;5.722;2023-03-01T07:08:24;15.30;;;7.50;;
78885;SDS011;68269;52.514;5.722;2023-03-01T07:10:57;12.95;;;5.45;;
78885;SDS011;68269;52.514;5.722;2023-03-01T07:13:27;13.07;;;5.55;;
78885;SDS011;68269;52.514;5.722;2023-03-01T07:15:57;11.07;;;4.57;;
78885;SDS011;68269;52.514;5.722;2023-03-01T07:18:26;12.63;;;4.72;;
78885;SDS011;68269;52.514;5.722;2023-03-01T07:20:55;9.57;;;4.35;;
78885;SDS011;68269;52.514;5.722;2023-03-01T07:23:27;12.75;;;5.40;;
78885;SDS011;68269;52.514;5.722;2023-03-01T07:25:57;15.55;;;6.68;;
78885;SDS011;68269;52.514;5.722;2023-03-01T07:28:26;14.13;;;6.53;;
78885;SDS011;68269;52.514;5.722;2023-03-01T07:31:00;9.77;;;5.28;;
78885;SDS011;68269;52.514;5.722;2023-03-01T07:33:29;12.25;;;4.80;;
78885;SDS011;68269;52.514;5.722;2023-03-01T07:35:59;9.95;;;4.38;;
78885;SDS011;68269;52.514;5.722;2023-03-01T07:38:32;8.55;;;4.15;;
78885;SDS011;68269;52.514;5.722;2023-03-01T07:41:02;8.57;;;3.17;;
78885;SDS011;68269;52.514;5.722;2023-03-01T07:43:32;10.93;;;4.32;;
78885;SDS011;68269;52.514;5.722;2023-03-01T07:46:02;10.18;;;4.30;;
78885;SDS011;68269;52.514;5.722;2023-03-01T07:48:32;10.20;;;4.07;;
78885;SDS011;68269;52.514;5.722;2023-03-01T07:51:02;15.10;;;5.05;;
78885;SDS011;68269;52.514;5.722;2023-03-01T07:53:36;11.68;;;4.88;;
78885;SDS011;68269;52.514;5.722;2023-03-01T07:56:05;10.38;;;4.57;;
78885;SDS011;68269;52.514;5.722;2023-03-01T07:58:37;10.15;;;4.30;;
78885;SDS011;68269;52.514;5.722;2023-03-01T08:01:09;11.73;;;4.78;;
78885;SDS011;68269;52.514;5.722;2023-03-01T08:03:39;11.13;;;6.28;;
78885;SDS011;68269;52.514;5.722;2023-03-01T08:06:09;11.00;;;4.40;;
78885;SDS011;68269;52.514;5.722;2023-03-01T08:08:42;10.32;;;4.80;;
78885;SDS011;68269;52.514;5.722;2023-03-01T08:11:12;10.32;;;4.90;;
78885;SDS011;68269;52.514;5.722;2023-03-01T08:13:43;9.23;;;3.72;;
78885;SDS011;68269;52.514;5.722;2023-03-01T08:16:15;9.52;;;4.03;;
78885;SDS011;68269;52.514;5.722;2023-03-01T08:18:44;9.45;;;4.13;;
78885;SDS011;68269;52.514;5.722;2023-03-01T08:21:14;11.68;;;4.18;;
78885;SDS011;68269;52.514;5.722;2023-03-01T08:23:47;8.77;;;3.38;;
78885;SDS011;68269;52.514;5.722;2023-03-01T08:26:18;7.30;;;2.95;;
78885;SDS011;68269;52.514;5.722;2023-03-01T08:28:48;9.13;;;3.40;;
78885;SDS011;68269;52.514;5.722;2023-03-01T08:31:18;15.25;;;5.55;;
78885;SDS011;68269;52.514;5.722;2023-03-01T08:33:50;12.73;;;4.57;;
78885;SDS011;68269;52.514;5.722;2023-03-01T08:36:21;9.27;;;4.65;;
78885;SDS011;68269;52.514;5.722;2023-03-01T08:38:54;15.45;;;6.15;;
78885;SDS011;68269;52.514;5.722;2023-03-01T08:41:23;16.08;;;5.40;;
78885;SDS011;68269;52.514;5.722;2023-03-01T08:43:53;12.60;;;6.13;;
78885;SDS011;68269;52.514;5.722;2023-03-01T08:46:24;10.73;;;4.22;;
78885;SDS011;68269;52.514;5.722;2023-03-01T08:48:54;11.05;;;4.60;;
78885;SDS011;68269;52.514;5.722;2023-03-01T08:51:24;9.65;;;4.72;;
78885;SDS011;68269;52.514;5.722;2023-03-01T08:53:57;10.23;;;3.85;;
78885;SDS011;68269;52.514;5.722;2023-03-01T08:56:26;17.38;;;5.40;;
78885;SDS011;68269;52.514;5.722;2023-03-01T08:58:56;10.55;;;4.35;;
78885;SDS011;68269;52.514;5.722;2023-03-01T09:01:25;17.27;;;6.93;;
78885;SDS011;68269;52.514;5.722;2023-03-01T09:03:54;16.55;;;8.18;;
78885;SDS011;68269;52.514;5.722;2023-03-01T09:06:24;13.85;;;5.22;;
78885;SDS011;68269;52.514;5.722;2023-03-01T09:08:53;13.75;;;6.25;;
78885;SDS011;68269;52.514;5.722;2023-03-01T09:11:25;12.45;;;6.47;;
78885;SDS011;68269;52.514;5.722;2023-03-01T09:13:54;17.48;;;7.25;;
78885;SDS011;68269;52.514;5.722;2023-03-01T09:16:24;14.77;;;6.32;;
78885;SDS011;68269;52.514;5.722;2023-03-01T09:18:55;13.75;;;5.53;;
78885;SDS011;68269;52.514;5.722;2023-03-01T09:21:24;17.00;;;6.20;;
78885;SDS011;68269;52.514;5.722;2023-03-01T09:23:55;19.67;;;8.30;;
78885;SDS011;68269;52.514;5.722;2023-03-01T09:26:28;15.35;;;7.38;;
78885;SDS011;68269;52.514;5.722;2023-03-01T09:28:57;13.07;;;5.55;;
78885;SDS011;68269;52.514;5.722;2023-03-01T09:31:26;12.10;;;5.15;;
78885;SDS011;68269;52.514;5.722;2023-03-01T09:33:55;18.13;;;7.10;;
78885;SDS011;68269;52.514;5.722;2023-03-01T09:36:25;12.43;;;4.35;;
78885;SDS011;68269;52.514;5.722;2023-03-01T09:38:54;14.05;;;5.32;;
78885;SDS011;68269;52.514;5.722;2023-03-01T09:41:30;15.93;;;5.25;;
78885;SDS011;68269;52.514;5.722;2023-03-01T09:44:16;18.25;;;6.63;;
78885;SDS011;68269;52.514;5.722;2023-03-01T09:46:52;21.77;;;7.45;;
78885;SDS011;68269;52.514;5.722;2023-03-01T09:49:24;13.80;;;5.32;;
78885;SDS011;68269;52.514;5.722;2023-03-01T09:51:58;14.25;;;4.72;;
78885;SDS011;68269;52.514;5.722;2023-03-01T09:54:31;14.75;;;5.95;;
78885;SDS011;68269;52.514;5.722;2023-03-01T09:57:13;12.20;;;4.47;;
78885;SDS011;68269;52.514;5.722;2023-03-01T09:59:55;12.52;;;4.90;;
78885;SDS011;68269;52.514;5.722;2023-03-01T10:02:38;17.15;;;4.85;;
78885;SDS011;68269;52.514;5.722;2023-03-01T10:05:20;10.52;;;3.63;;
78885;SDS011;68269;52.514;5.722;2023-03-01T10:08:22;11.45;;;4.82;;
78885;SDS011;68269;52.514;5.722;2023-03-01T10:10:56;14.98;;;4.40;;
78885;SDS011;68269;52.514;5.722;2023-03-01T10:13:32;10.57;;;2.97;;
78885;SDS011;68269;52.514;5.722;2023-03-01T10:16:09;9.20;;;3.60;;
78885;SDS011;68269;52.514;5.722;2023-03-01T10:18:52;8.02;;;2.13;;
78885;SDS011;68269;52.514;5.722;2023-03-01T10:21:25;7.65;;;2.78;;
78885;SDS011;68269;52.514;5.722;2023-03-01T10:23:58;10.77;;;3.03;;
78885;SDS011;68269;52.514;5.722;2023-03-01T10:26:40;9.23;;;3.65;;
78885;SDS011;68269;52.514;5.722;2023-03-01T10:29:18;9.60;;;3.38;;
78885;SDS011;68269;52.514;5.722;2023-03-01T10:31:52;7.25;;;2.47;;
78885;SDS011;68269;52.514;5.722;2023-03-01T10:34:27;6.43;;;2.10;;
78885;SDS011;68269;52.514;5.722;2023-03-01T10:36:57;6.15;;;1.92;;
78885;SDS011;68269;52.514;5.722;2023-03-01T10:39:37;5.65;;;2.40;;
78885;SDS011;68269;52.514;5.722;2023-03-01T10:42:26;5.82;;;1.50;;
78885;SDS011;68269;52.514;5.722;2023-03-01T10:44:59;8.15;;;2.53;;
78885;SDS011;68269;52.514;5.722;2023-03-01T10:47:45;8.93;;;1.88;;
78885;SDS011;68269;52.514;5.722;2023-03-01T10:50:18;7.93;;;1.67;;
78885;SDS011;68269;52.514;5.722;2023-03-01T10:52:55;9.50;;;2.05;;
78885;SDS011;68269;52.514;5.722;2023-03-01T10:55:28;6.75;;;1.60;;
78885;SDS011;68269;52.514;5.722;2023-03-01T10:58:09;9.38;;;2.15;;
78885;SDS011;68269;52.514;5.722;2023-03-01T11:00:50;6.53;;;2.42;;
78885;SDS011;68269;52.514;5.722;2023-03-01T11:03:21;6.90;;;1.88;;
78885;SDS011;68269;52.514;5.722;2023-03-01T11:05:54;6.82;;;2.30;;
78885;SDS011;68269;52.514;5.722;2023-03-01T11:08:33;4.75;;;1.70;;
78885;SDS011;68269;52.514;5.722;2023-03-01T11:11:06;8.15;;;2.03;;
78885;SDS011;68269;52.514;5.722;2023-03-01T11:13:47;8.30;;;2.00;;
78885;SDS011;68269;52.514;5.722;2023-03-01T11:16:27;5.15;;;1.95;;
78885;SDS011;68269;52.514;5.722;2023-03-01T11:19:12;6.30;;;1.77;;
78885;SDS011;68269;52.514;5.722;2023-03-01T11:21:46;6.75;;;2.17;;
78885;SDS011;68269;52.514;5.722;2023-03-01T11:24:24;5.78;;;1.83;;
78885;SDS011;68269;52.514;5.722;2023-03-01T11:26:59;4.90;;;1.40;;
78885;SDS011;68269;52.514;5.722;2023-03-01T11:29:34;7.88;;;1.98;;
78885;SDS011;68269;52.514;5.722;2023-03-01T11:32:09;6.35;;;1.58;;
78885;SDS011;68269;52.514;5.722;2023-03-01T11:34:42;6.22;;;1.50;;
78885;SDS011;68269;52.514;5.722;2023-03-01T11:37:21;5.35;;;1.55;;
78885;SDS011;68269;52.514;5.722;2023-03-01T11:40:03;6.43;;;1.65;;
78885;SDS011;68269;52.514;5.722;2023-03-01T11:42:46;4.75;;;1.23;;
78885;SDS011;68269;52.514;5.722;2023-03-01T11:45:22;6.68;;;2.35;;
78885;SDS011;68269;52.514;5.722;2023-03-01T11:47:59;6.80;;;2.00;;
78885;SDS011;68269;52.514;5.722;2023-03-01T11:50:39;6.18;;;1.50;;
78885;SDS011;68269;52.514;5.722;2023-03-01T11:58:58;3.83;;;1.42;;
78885;SDS011;68269;52.514;5.722;2023-03-01T12:01:51;6.20;;;2.28;;
78885;SDS011;68269;52.514;5.722;2023-03-01T12:07:29;6.78;;;1.65;;
78885;SDS011;68269;52.514;5.722;2023-03-01T12:12:55;5.72;;;1.95;;
78885;SDS011;68269;52.514;5.722;2023-03-01T12:15:52;5.57;;;2.10;;
78885;SDS011;68269;52.514;5.722;2023-03-01T12:18:42;8.20;;;1.58;;
78885;SDS011;68269;52.514;5.722;2023-03-01T12:21:35;7.78;;;2.28;;
78885;SDS011;68269;52.514;5.722;2023-03-01T12:24:21;7.70;;;1.90;;
78885;SDS011;68269;52.514;5.722;2023-03-01T12:27:09;10.95;;;2.92;;
78885;SDS011;68269;52.514;5.722;2023-03-01T12:29:52;8.23;;;2.75;;
78885;SDS011;68269;52.514;5.722;2023-03-01T12:32:33;6.50;;;1.90;;
78885;SDS011;68269;52.514;5.722;2023-03-01T12:38:18;4.30;;;1.42;;
78885;SDS011;68269;52.514;5.722;2023-03-01T12:41:15;9.07;;;1.77;;
78885;SDS011;68269;52.514;5.722;2023-03-01T12:43:58;8.63;;;2.38;;
78885;SDS011;68269;52.514;5.722;2023-03-01T12:46:41;9.85;;;3.38;;
78885;SDS011;68269;52.514;5.722;2023-03-01T12:49:28;8.00;;;2.28;;
78885;SDS011;68269;52.514;5.722;2023-03-01T12:52:01;13.00;;;2.63;;
78885;SDS011;68269;52.514;5.722;2023-03-01T12:54:40;8.75;;;2.97;;
78885;SDS011;68269;52.514;5.722;2023-03-01T12:57:12;12.55;;;2.65;;
78885;SDS011;68269;52.514;5.722;2023-03-01T12:59:48;9.20;;;2.90;;
78885;SDS011;68269;52.514;5.722;2023-03-01T13:02:31;6.72;;;1.92;;
78885;SDS011;68269;52.514;5.722;2023-03-01T13:05:16;9.52;;;3.25;;
78885;SDS011;68269;52.514;5.722;2023-03-01T13:07:53;9.48;;;2.60;;
78885;SDS011;68269;52.514;5.722;2023-03-01T13:10:33;9.98;;;3.50;;
78885;SDS011;68269;52.514;5.722;2023-03-01T13:13:18;10.38;;;3.10;;
78885;SDS011;68269;52.514;5.722;2023-03-01T13:15:49;8.77;;;2.92;;
78885;SDS011;68269;52.514;5.722;2023-03-01T13:18:29;8.27;;;3.30;;
78885;SDS011;68269;52.514;5.722;2023-03-01T13:21:01;13.48;;;3.22;;
78885;SDS011;68269;52.514;5.722;2023-03-01T13:23:35;10.50;;;3.47;;
78885;SDS011;68269;52.514;5.722;2023-03-01T13:26:12;10.45;;;2.90;;
78885;SDS011;68269;52.514;5.722;2023-03-01T13:28:47;11.55;;;3.65;;
78885;SDS011;68269;52.514;5.722;2023-03-01T13:37:22;7.07;;;2.33;;
78885;SDS011;68269;52.514;5.722;2023-03-01T13:40:04;11.50;;;2.03;;
78885;SDS011;68269;52.514;5.722;2023-03-01T13:42:52;9.32;;;3.35;;
78885;SDS011;68269;52.514;5.722;2023-03-01T13:45:24;8.80;;;3.13;;
78885;SDS011;68269;52.514;5.722;2023-03-01T13:48:03;9.68;;;3.70;;
78885;SDS011;68269;52.514;5.722;2023-03-01T13:50:42;8.48;;;2.47;;
78885;SDS011;68269;52.514;5.722;2023-03-01T13:53:16;8.00;;;2.20;;
78885;SDS011;68269;52.514;5.722;2023-03-01T13:55:47;7.72;;;2.55;;
78885;SDS011;68269;52.514;5.722;2023-03-01T13:58:24;9.15;;;2.72;;
78885;SDS011;68269;52.514;5.722;2023-03-01T14:00:57;8.80;;;2.63;;
78885;SDS011;68269;52.514;5.722;2023-03-01T14:03:29;10.25;;;2.45;;
78885;SDS011;68269;52.514;5.722;2023-03-01T14:06:01;7.82;;;2.38;;
78885;SDS011;68269;52.514;5.722;2023-03-01T14:08:35;7.78;;;2.15;;
78885;SDS011;68269;52.514;5.722;2023-03-01T14:14:12;6.53;;;1.90;;
78885;SDS011;68269;52.514;5.722;2023-03-01T14:16:55;6.82;;;2.22;;
78885;SDS011;68269;52.514;5.722;2023-03-01T14:19:34;7.13;;;2.00;;
78885;SDS011;68269;52.514;5.722;2023-03-01T14:22:07;7.53;;;2.05;;
78885;SDS011;68269;52.514;5.722;2023-03-01T14:24:47;8.32;;;2.40;;
78885;SDS011;68269;52.514;5.722;2023-03-01T14:27:20;10.50;;;2.63;;
78885;SDS011;68269;52.514;5.722;2023-03-01T14:29:58;7.22;;;2.08;;
78885;SDS011;68269;52.514;5.722;2023-03-01T14:32:29;7.72;;;2.22;;
78885;SDS011;68269;52.514;5.722;2023-03-01T14:35:00;7.38;;;2.42;;
78885;SDS011;68269;52.514;5.722;2023-03-01T14:37:30;8.00;;;2.30;;
78885;SDS011;68269;52.514;5.722;2023-03-01T14:40:03;8.65;;;3.00;;
78885;SDS011;68269;52.514;5.722;2023-03-01T14:42:34;6.45;;;2.08;;
78885;SDS011;68269;52.514;5.722;2023-03-01T14:45:09;6.78;;;2.35;;
78885;SDS011;68269;52.514;5.722;2023-03-01T14:47:43;7.70;;;1.85;;
78885;SDS011;68269;52.514;5.722;2023-03-01T14:50:22;7.10;;;2.25;;
78885;SDS011;68269;52.514;5.722;2023-03-01T14:52:54;7.47;;;2.15;;
78885;SDS011;68269;52.514;5.722;2023-03-01T14:55:26;7.35;;;2.42;;
78885;SDS011;68269;52.514;5.722;2023-03-01T15:00:30;8.90;;;2.50;;
78885;SDS011;68269;52.514;5.722;2023-03-01T15:03:02;7.32;;;2.05;;
78885;SDS011;68269;52.514;5.722;2023-03-01T15:05:39;9.20;;;2.22;;
78885;SDS011;68269;52.514;5.722;2023-03-01T15:08:11;9.80;;;2.63;;
78885;SDS011;68269;52.514;5.722;2023-03-01T15:10:55;5.93;;;2.03;;
78885;SDS011;68269;52.514;5.722;2023-03-01T15:13:29;8.00;;;2.70;;
78885;SDS011;68269;52.514;5.722;2023-03-01T15:16:03;7.40;;;2.25;;
78885;SDS011;68269;52.514;5.722;2023-03-01T15:18:38;7.45;;;1.95;;
78885;SDS011;68269;52.514;5.722;2023-03-01T15:21:15;7.43;;;2.40;;
78885;SDS011;68269;52.514;5.722;2023-03-01T15:23:49;9.70;;;2.72;;
78885;SDS011;68269;52.514;5.722;2023-03-01T15:26:24;10.70;;;3.33;;
78885;SDS011;68269;52.514;5.722;2023-03-01T15:28:57;6.30;;;1.90;;
78885;SDS011;68269;52.514;5.722;2023-03-01T15:31:31;6.85;;;1.83;;
78885;SDS011;68269;52.514;5.722;2023-03-01T15:34:08;7.15;;;2.30;;
78885;SDS011;68269;52.514;5.722;2023-03-01T15:36:41;8.27;;;2.17;;
78885;SDS011;68269;52.514;5.722;2023-03-01T15:39:27;8.80;;;3.03;;
78885;SDS011;68269;52.514;5.722;2023-03-01T15:42:04;8.23;;;2.22;;
78885;SDS011;68269;52.514;5.722;2023-03-01T15:44:37;6.65;;;2.35;;
78885;SDS011;68269;52.514;5.722;2023-03-01T15:47:21;8.82;;;2.75;;